sensor_id;sensor_type;location;lat;lon;timestamp;P1;durP1;ratioP1;P2;durP2;ratioP2
3875;SDS011;1953;51.222;6.624;2024-01-10T00:00:25;19.27;;;8.90;;
3875;SDS011;1953;51.222;6.624;2024-01-10T00:05:08;17.50;;;8.60;;
3875;SDS011;1953;51.222;6.624;2024-01-10T00:09:51;20.63;;;8.63;;
3875;SDS011;1953;51.222;6.624;2024-01-10T00:14:33;18.80;;;9.57;;
3875;SDS011;1953;51.222;6.624;2024-01-10T00:20:42;20.97;;;9.70;;
3875;SDS011;1953;51.222;6.624;2024-01-10T00:25:24;19.80;;;8.47;;
3875;SDS011;1953;51.222;6.624;2024-01-10T00:30:07;25.03;;;8.90;;
3875;SDS011;1953;51.222;6.624;2024-01-10T00:34:50;21.87;;;9.27;;
3875;SDS011;1953;51.222;6.624;2024-01-10T00:39:34;19.93;;;9.13;;
3875;SDS011;1953;51.222;6.624;2024-01-10T00:44:17;19.03;;;8.70;;
3875;SDS011;1953;51.222;6.624;2024-01-10T00:48:59;16.60;;;7.60;;
3875;SDS011;1953;51.222;6.624;2024-01-10T00:53:42;19.10;;;8.30;;
3875;SDS011;1953;51.222;6.624;2024-01-10T00:58:26;22.43;;;9.10;;
3875;SDS011;1953;51.222;6.624;2024-01-10T01:03:08;20.70;;;9.60;;
3875;SDS011;1953;51.222;6.624;2024-01-10T01:07:51;22.10;;;9.30;;
3875;SDS011;1953;51.222;6.624;2024-01-10T01:12:33;19.90;;;8.53;;
3875;SDS011;1953;51.222;6.624;2024-01-10T01:17:17;17.20;;;8.53;;
3875;SDS011;1953;51.222;6.624;2024-01-10T01:22:00;20.00;;;7.70;;
3875;SDS011;1953;51.222;6.624;2024-01-10T01:26:43;17.07;;;8.00;;
3875;SDS011;1953;51.222;6.624;2024-01-10T01:31:25;25.43;;;9.03;;
3875;SDS011;1953;51.222;6.624;2024-01-10T01:36:09;20.03;;;8.40;;
3875;SDS011;1953;51.222;6.624;2024-01-10T01:40:52;20.20;;;7.97;;
3875;SDS011;1953;51.222;6.624;2024-01-10T01:45:35;24.70;;;9.30;;
3875;SDS011;1953;51.222;6.624;2024-01-10T01:50:17;16.80;;;8.20;;
3875;SDS011;1953;51.222;6.624;2024-01-10T01:55:02;17.20;;;7.80;;
3875;SDS011;1953;51.222;6.624;2024-01-10T01:59:45;24.67;;;8.80;;
3875;SDS011;1953;51.222;6.624;2024-01-10T02:04:27;18.30;;;8.53;;
3875;SDS011;1953;51.222;6.624;2024-01-10T02:09:11;21.13;;;8.40;;
3875;SDS011;1953;51.222;6.624;2024-01-10T02:13:57;19.10;;;8.33;;
3875;SDS011;1953;51.222;6.624;2024-01-10T02:18:39;17.67;;;9.03;;
3875;SDS011;1953;51.222;6.624;2024-01-10T02:23:22;22.60;;;8.07;;
3875;SDS011;1953;51.222;6.624;2024-01-10T02:28:06;19.20;;;8.53;;
3875;SDS011;1953;51.222;6.624;2024-01-10T02:32:50;20.67;;;8.13;;
3875;SDS011;1953;51.222;6.624;2024-01-10T02:37:32;18.30;;;8.43;;
3875;SDS011;1953;51.222;6.624;2024-01-10T02:42:15;24.83;;;9.40;;
3875;SDS011;1953;51.222;6.624;2024-01-10T02:46:59;15.87;;;8.07;;
3875;SDS011;1953;51.222;6.624;2024-01-10T02:51:42;16.40;;;8.10;;
3875;SDS011;1953;51.222;6.624;2024-01-10T02:56:24;17.10;;;7.83;;
3875;SDS011;1953;51.222;6.624;2024-01-10T03:01:07;18.50;;;8.13;;
3875;SDS011;1953;51.222;6.624;2024-01-10T03:05:51;18.83;;;9.20;;
3875;SDS011;1953;51.222;6.624;2024-01-10T03:10:34;16.20;;;7.87;;
3875;SDS011;1953;51.222;6.624;2024-01-10T03:15:16;19.50;;;7.60;;
3875;SDS011;1953;51.222;6.624;2024-01-10T03:19:59;18.90;;;8.07;;
3875;SDS011;1953;51.222;6.624;2024-01-10T03:24:43;18.47;;;7.87;;
3875;SDS011;1953;51.222;6.624;2024-01-10T03:29:25;17.73;;;7.67;;
3875;SDS011;1953;51.222;6.624;2024-01-10T03:34:08;17.90;;;7.57;;
3875;SDS011;1953;51.222;6.624;2024-01-10T03:38:50;17.37;;;7.70;;
3875;SDS011;1953;51.222;6.624;2024-01-10T03:43:34;18.63;;;7.80;;
3875;SDS011;1953;51.222;6.624;2024-01-10T03:48:17;13.43;;;7.20;;
3875;SDS011;1953;51.222;6.624;2024-01-10T03:53:00;17.70;;;7.37;;
3875;SDS011;1953;51.222;6.624;2024-01-10T03:57:42;18.23;;;7.20;;
3875;SDS011;1953;51.222;6.624;2024-01-10T04:02:26;19.80;;;7.30;;
3875;SDS011;1953;51.222;6.624;2024-01-10T04:07:09;15.10;;;6.90;;
3875;SDS011;1953;51.222;6.624;2024-01-10T04:11:51;18.50;;;7.00;;
3875;SDS011;1953;51.222;6.624;2024-01-10T04:16:34;16.30;;;7.27;;
3875;SDS011;1953;51.222;6.624;2024-01-10T04:21:18;16.43;;;6.87;;
3875;SDS011;1953;51.222;6.624;2024-01-10T04:26:00;15.83;;;7.73;;
3875;SDS011;1953;51.222;6.624;2024-01-10T04:30:43;17.60;;;7.23;;
3875;SDS011;1953;51.222;6.624;2024-01-10T04:35:26;18.00;;;7.70;;
3875;SDS011;1953;51.222;6.624;2024-01-10T04:40:10;17.27;;;7.57;;
3875;SDS011;1953;51.222;6.624;2024-01-10T04:44:53;16.20;;;7.43;;
3875;SDS011;1953;51.222;6.624;2024-01-10T04:49:35;18.83;;;7.97;;
3875;SDS011;1953;51.222;6.624;2024-01-10T04:54:18;20.77;;;8.50;;
3875;SDS011;1953;51.222;6.624;2024-01-10T04:59:02;19.60;;;7.67;;
3875;SDS011;1953;51.222;6.624;2024-01-10T05:03:45;18.00;;;8.17;;
3875;SDS011;1953;51.222;6.624;2024-01-10T05:08:27;17.93;;;7.87;;
3875;SDS011;1953;51.222;6.624;2024-01-10T05:13:10;19.83;;;8.43;;
3875;SDS011;1953;51.222;6.624;2024-01-10T05:17:54;20.27;;;8.53;;
3875;SDS011;1953;51.222;6.624;2024-01-10T05:22:36;19.50;;;8.30;;
3875;SDS011;1953;51.222;6.624;2024-01-10T05:27:19;18.70;;;8.27;;
3875;SDS011;1953;51.222;6.624;2024-01-10T05:32:01;15.10;;;7.03;;
3875;SDS011;1953;51.222;6.624;2024-01-10T05:36:46;22.00;;;8.97;;
3875;SDS011;1953;51.222;6.624;2024-01-10T05:41:29;17.87;;;8.10;;
3875;SDS011;1953;51.222;6.624;2024-01-10T05:46:11;20.53;;;9.10;;
3875;SDS011;1953;51.222;6.624;2024-01-10T05:50:54;25.67;;;9.43;;
3875;SDS011;1953;51.222;6.624;2024-01-10T05:55:38;18.87;;;8.30;;
3875;SDS011;1953;51.222;6.624;2024-01-10T06:00:20;19.73;;;8.03;;
3875;SDS011;1953;51.222;6.624;2024-01-10T06:05:03;18.13;;;8.67;;
3875;SDS011;1953;51.222;6.624;2024-01-10T06:09:47;16.27;;;7.77;;
3875;SDS011;1953;51.222;6.624;2024-01-10T06:14:30;19.97;;;8.90;;
3875;SDS011;1953;51.222;6.624;2024-01-10T06:19:13;24.00;;;9.10;;
3875;SDS011;1953;51.222;6.624;2024-01-10T06:23:55;17.97;;;8.47;;
3875;SDS011;1953;51.222;6.624;2024-01-10T06:28:38;19.87;;;8.47;;
3875;SDS011;1953;51.222;6.624;2024-01-10T06:33:22;25.60;;;10.93;;
3875;SDS011;1953;51.222;6.624;2024-01-10T06:38:04;23.00;;;9.50;;
3875;SDS011;1953;51.222;6.624;2024-01-10T06:42:47;24.07;;;9.30;;
3875;SDS011;1953;51.222;6.624;2024-01-10T06:47:29;20.60;;;9.57;;
3875;SDS011;1953;51.222;6.624;2024-01-10T06:52:13;20.90;;;9.07;;
3875;SDS011;1953;51.222;6.624;2024-01-10T06:56:55;21.63;;;7.83;;
3875;SDS011;1953;51.222;6.624;2024-01-10T07:01:38;23.73;;;10.50;;
3875;SDS011;1953;51.222;6.624;2024-01-10T07:06:20;22.97;;;10.50;;
3875;SDS011;1953;51.222;6.624;2024-01-10T07:11:05;21.53;;;9.57;;
3875;SDS011;1953;51.222;6.624;2024-01-10T07:15:47;21.83;;;9.37;;
3875;SDS011;1953;51.222;6.624;2024-01-10T07:20:31;25.83;;;9.47;;
3875;SDS011;1953;51.222;6.624;2024-01-10T07:25:14;25.93;;;9.00;;
3875;SDS011;1953;51.222;6.624;2024-01-10T07:29:59;21.17;;;9.63;;
3875;SDS011;1953;51.222;6.624;2024-01-10T07:34:41;19.73;;;9.43;;
3875;SDS011;1953;51.222;6.624;2024-01-10T07:39:25;24.17;;;9.60;;
3875;SDS011;1953;51.222;6.624;2024-01-10T07:44:09;23.90;;;10.70;;
3875;SDS011;1953;51.222;6.624;2024-01-10T07:48:53;22.73;;;10.30;;
3875;SDS011;1953;51.222;6.624;2024-01-10T07:53:35;24.70;;;10.23;;
3875;SDS011;1953;51.222;6.624;2024-01-10T07:58:18;24.70;;;13.17;;
3875;SDS011;1953;51.222;6.624;2024-01-10T08:03:00;26.42;;;13.90;;
3875;SDS011;1953;51.222;6.624;2024-01-10T08:07:44;29.43;;;12.27;;
3875;SDS011;1953;51.222;6.624;2024-01-10T08:12:26;27.83;;;12.47;;
3875;SDS011;1953;51.222;6.624;2024-01-10T08:17:09;25.07;;;10.50;;
3875;SDS011;1953;51.222;6.624;2024-01-10T08:21:51;22.77;;;10.40;;
3875;SDS011;1953;51.222;6.624;2024-01-10T08:26:35;31.00;;;11.10;;
3875;SDS011;1953;51.222;6.624;2024-01-10T08:31:18;19.77;;;10.30;;
3875;SDS011;1953;51.222;6.624;2024-01-10T08:36:01;24.53;;;10.83;;
3875;SDS011;1953;51.222;6.624;2024-01-10T08:40:44;26.70;;;11.30;;
3875;SDS011;1953;51.222;6.624;2024-01-10T08:45:29;29.37;;;13.60;;
3875;SDS011;1953;51.222;6.624;2024-01-10T08:50:11;27.00;;;12.67;;
3875;SDS011;1953;51.222;6.624;2024-01-10T08:54:54;29.67;;;11.50;;
3875;SDS011;1953;51.222;6.624;2024-01-10T08:59:40;29.10;;;11.80;;
3875;SDS011;1953;51.222;6.624;2024-01-10T09:04:24;27.23;;;11.27;;
3875;SDS011;1953;51.222;6.624;2024-01-10T09:09:07;27.50;;;11.40;;
3875;SDS011;1953;51.222;6.624;2024-01-10T09:13:50;27.90;;;11.40;;
3875;SDS011;1953;51.222;6.624;2024-01-10T09:18:32;30.47;;;12.97;;
3875;SDS011;1953;51.222;6.624;2024-01-10T09:23:16;29.53;;;11.80;;
3875;SDS011;1953;51.222;6.624;2024-01-10T09:27:59;23.37;;;11.27;;
3875;SDS011;1953;51.222;6.624;2024-01-10T09:32:42;26.60;;;11.87;;
3875;SDS011;1953;51.222;6.624;2024-01-10T09:37:24;33.30;;;13.73;;
3875;SDS011;1953;51.222;6.624;2024-01-10T09:42:08;25.03;;;10.90;;
3875;SDS011;1953;51.222;6.624;2024-01-10T09:46:51;28.70;;;11.73;;
3875;SDS011;1953;51.222;6.624;2024-01-10T09:51:34;29.53;;;12.80;;
3875;SDS011;1953;51.222;6.624;2024-01-10T09:56:17;25.90;;;11.87;;
3875;SDS011;1953;51.222;6.624;2024-01-10T10:01:01;29.70;;;13.60;;
3875;SDS011;1953;51.222;6.624;2024-01-10T10:05:45;29.23;;;12.37;;
3875;SDS011;1953;51.222;6.624;2024-01-10T10:10:27;30.03;;;13.53;;
3875;SDS011;1953;51.222;6.624;2024-01-10T10:15:10;28.93;;;13.20;;
3875;SDS011;1953;51.222;6.624;2024-01-10T10:19:58;28.70;;;12.77;;
3875;SDS011;1953;51.222;6.624;2024-01-10T10:24:47;38.80;;;13.57;;
3875;SDS011;1953;51.222;6.624;2024-01-10T10:29:30;28.40;;;12.70;;
3875;SDS011;1953;51.222;6.624;2024-01-10T10:34:13;33.73;;;13.90;;
3875;SDS011;1953;51.222;6.624;2024-01-10T10:39:03;33.10;;;14.40;;
3875;SDS011;1953;51.222;6.624;2024-01-10T10:43:54;33.43;;;14.43;;
3875;SDS011;1953;51.222;6.624;2024-01-10T10:48:37;34.37;;;13.70;;
3875;SDS011;1953;51.222;6.624;2024-01-10T10:53:19;33.63;;;14.60;;
3875;SDS011;1953;51.222;6.624;2024-01-10T10:58:04;32.23;;;14.43;;
3875;SDS011;1953;51.222;6.624;2024-01-10T11:02:47;28.93;;;13.67;;
3875;SDS011;1953;51.222;6.624;2024-01-10T11:07:30;39.87;;;15.10;;
3875;SDS011;1953;51.222;6.624;2024-01-10T11:12:16;30.40;;;13.53;;
3875;SDS011;1953;51.222;6.624;2024-01-10T11:22:40;32.90;;;15.03;;
3875;SDS011;1953;51.222;6.624;2024-01-10T11:27:32;28.90;;;14.07;;
3875;SDS011;1953;51.222;6.624;2024-01-10T11:32:15;29.43;;;13.87;;
3875;SDS011;1953;51.222;6.624;2024-01-10T11:37:11;34.50;;;16.30;;
3875;SDS011;1953;51.222;6.624;2024-01-10T11:41:55;33.80;;;14.97;;
3875;SDS011;1953;51.222;6.624;2024-01-10T11:46:38;39.90;;;15.83;;
3875;SDS011;1953;51.222;6.624;2024-01-10T11:51:21;35.47;;;15.53;;
3875;SDS011;1953;51.222;6.624;2024-01-10T11:56:08;34.90;;;16.10;;
3875;SDS011;1953;51.222;6.624;2024-01-10T12:00:53;33.73;;;15.10;;
3875;SDS011;1953;51.222;6.624;2024-01-10T12:05:36;34.87;;;15.23;;
3875;SDS011;1953;51.222;6.624;2024-01-10T12:10:19;42.13;;;16.40;;
3875;SDS011;1953;51.222;6.624;2024-01-10T12:15:02;35.73;;;14.23;;
3875;SDS011;1953;51.222;6.624;2024-01-10T12:21:41;31.33;;;13.30;;
3875;SDS011;1953;51.222;6.624;2024-01-10T12:26:23;32.00;;;13.70;;
3875;SDS011;1953;51.222;6.624;2024-01-10T12:31:06;27.43;;;13.90;;
3875;SDS011;1953;51.222;6.624;2024-01-10T12:36:02;30.77;;;12.43;;
3875;SDS011;1953;51.222;6.624;2024-01-10T12:40:48;35.03;;;14.40;;
3875;SDS011;1953;51.222;6.624;2024-01-10T12:45:30;31.70;;;13.90;;
3875;SDS011;1953;51.222;6.624;2024-01-10T12:50:13;30.40;;;13.73;;
3875;SDS011;1953;51.222;6.624;2024-01-10T12:54:56;55.00;;;14.90;;
3875;SDS011;1953;51.222;6.624;2024-01-10T12:59:39;32.70;;;14.60;;
3875;SDS011;1953;51.222;6.624;2024-01-10T13:04:22;31.20;;;14.97;;
3875;SDS011;1953;51.222;6.624;2024-01-10T13:09:05;35.30;;;17.20;;
3875;SDS011;1953;51.222;6.624;2024-01-10T13:13:48;38.17;;;15.23;;
3875;SDS011;1953;51.222;6.624;2024-01-10T13:18:32;32.37;;;16.80;;
3875;SDS011;1953;51.222;6.624;2024-01-10T13:23:14;32.53;;;15.17;;
3875;SDS011;1953;51.222;6.624;2024-01-10T13:27:57;36.80;;;16.13;;
3875;SDS011;1953;51.222;6.624;2024-01-10T13:32:40;40.33;;;16.57;;
3875;SDS011;1953;51.222;6.624;2024-01-10T13:37:23;32.73;;;15.13;;
3875;SDS011;1953;51.222;6.624;2024-01-10T13:42:09;38.73;;;15.50;;
3875;SDS011;1953;51.222;6.624;2024-01-10T13:46:52;38.37;;;16.77;;
3875;SDS011;1953;51.222;6.624;2024-01-10T13:51:35;31.77;;;15.87;;
3875;SDS011;1953;51.222;6.624;2024-01-10T13:56:19;33.20;;;17.03;;
3875;SDS011;1953;51.222;6.624;2024-01-10T14:01:03;31.70;;;16.97;;
3875;SDS011;1953;51.222;6.624;2024-01-10T14:05:46;37.00;;;16.80;;
3875;SDS011;1953;51.222;6.624;2024-01-10T14:10:28;36.80;;;17.20;;
3875;SDS011;1953;51.222;6.624;2024-01-10T14:15:12;35.70;;;17.50;;
3875;SDS011;1953;51.222;6.624;2024-01-10T14:19:55;43.00;;;18.33;;
3875;SDS011;1953;51.222;6.624;2024-01-10T14:24:38;35.23;;;17.37;;
3875;SDS011;1953;51.222;6.624;2024-01-10T14:29:20;33.50;;;17.10;;
3875;SDS011;1953;51.222;6.624;2024-01-10T14:34:05;31.30;;;16.63;;
3875;SDS011;1953;51.222;6.624;2024-01-10T14:38:48;36.87;;;17.03;;
3875;SDS011;1953;51.222;6.624;2024-01-10T14:43:31;42.10;;;17.47;;
3875;SDS011;1953;51.222;6.624;2024-01-10T14:48:14;41.57;;;19.10;;
3875;SDS011;1953;51.222;6.624;2024-01-10T14:52:57;38.07;;;17.30;;
3875;SDS011;1953;51.222;6.624;2024-01-10T14:57:40;36.00;;;18.57;;
3875;SDS011;1953;51.222;6.624;2024-01-10T15:02:22;35.53;;;18.03;;
3875;SDS011;1953;51.222;6.624;2024-01-10T15:07:05;41.40;;;21.03;;
3875;SDS011;1953;51.222;6.624;2024-01-10T15:11:49;46.57;;;21.07;;
3875;SDS011;1953;51.222;6.624;2024-01-10T15:16:34;45.80;;;18.90;;
3875;SDS011;1953;51.222;6.624;2024-01-10T15:21:17;46.60;;;20.80;;
3875;SDS011;1953;51.222;6.624;2024-01-10T15:26:00;41.17;;;19.20;;
3875;SDS011;1953;51.222;6.624;2024-01-10T15:30:44;47.83;;;20.00;;
3875;SDS011;1953;51.222;6.624;2024-01-10T15:35:27;46.07;;;21.40;;
3875;SDS011;1953;51.222;6.624;2024-01-10T15:40:09;51.73;;;21.83;;
3875;SDS011;1953;51.222;6.624;2024-01-10T15:44:54;56.90;;;22.40;;
3875;SDS011;1953;51.222;6.624;2024-01-10T15:49:38;48.63;;;21.40;;
3875;SDS011;1953;51.222;6.624;2024-01-10T15:54:20;46.40;;;20.67;;
3875;SDS011;1953;51.222;6.624;2024-01-10T15:59:04;55.33;;;21.93;;
3875;SDS011;1953;51.222;6.624;2024-01-10T16:03:47;46.87;;;21.23;;
3875;SDS011;1953;51.222;6.624;2024-01-10T16:08:31;53.10;;;21.80;;
3875;SDS011;1953;51.222;6.624;2024-01-10T16:13:13;47.23;;;20.93;;
3875;SDS011;1953;51.222;6.624;2024-01-10T16:17:56;64.53;;;24.00;;
3875;SDS011;1953;51.222;6.624;2024-01-10T16:22:39;52.57;;;24.57;;
3875;SDS011;1953;51.222;6.624;2024-01-10T16:27:23;57.43;;;25.17;;
3875;SDS011;1953;51.222;6.624;2024-01-10T16:32:05;51.80;;;24.97;;
3875;SDS011;1953;51.222;6.624;2024-01-10T16:36:48;63.50;;;27.43;;
3875;SDS011;1953;51.222;6.624;2024-01-10T16:41:30;56.07;;;26.03;;
3875;SDS011;1953;51.222;6.624;2024-01-10T16:46:15;63.17;;;28.23;;
3875;SDS011;1953;51.222;6.624;2024-01-10T16:50:58;54.77;;;25.73;;
3875;SDS011;1953;51.222;6.624;2024-01-10T16:55:40;50.80;;;23.13;;
3875;SDS011;1953;51.222;6.624;2024-01-10T17:00:23;55.10;;;25.23;;
3875;SDS011;1953;51.222;6.624;2024-01-10T17:05:08;70.17;;;27.37;;
3875;SDS011;1953;51.222;6.624;2024-01-10T17:09:51;56.07;;;24.97;;
3875;SDS011;1953;51.222;6.624;2024-01-10T17:14:33;62.80;;;26.73;;
3875;SDS011;1953;51.222;6.624;2024-01-10T17:19:16;59.47;;;26.13;;
3875;SDS011;1953;51.222;6.624;2024-01-10T17:24:00;62.93;;;26.67;;
3875;SDS011;1953;51.222;6.624;2024-01-10T17:28:43;51.90;;;24.50;;
3875;SDS011;1953;51.222;6.624;2024-01-10T17:33:25;55.07;;;24.70;;
3875;SDS011;1953;51.222;6.624;2024-01-10T17:38:08;54.30;;;24.67;;
3875;SDS011;1953;51.222;6.624;2024-01-10T17:42:52;54.10;;;24.73;;
3875;SDS011;1953;51.222;6.624;2024-01-10T17:47:35;50.67;;;25.37;;
3875;SDS011;1953;51.222;6.624;2024-01-10T17:52:17;60.53;;;27.10;;
3875;SDS011;1953;51.222;6.624;2024-01-10T17:57:00;66.00;;;26.60;;
3875;SDS011;1953;51.222;6.624;2024-01-10T18:01:44;73.07;;;27.50;;
3875;SDS011;1953;51.222;6.624;2024-01-10T18:06:26;54.67;;;23.47;;
3875;SDS011;1953;51.222;6.624;2024-01-10T18:11:09;52.40;;;24.80;;
3875;SDS011;1953;51.222;6.624;2024-01-10T18:15:52;53.90;;;23.90;;
3875;SDS011;1953;51.222;6.624;2024-01-10T18:20:36;59.40;;;24.17;;
3875;SDS011;1953;51.222;6.624;2024-01-10T18:25:18;53.47;;;22.90;;
3875;SDS011;1953;51.222;6.624;2024-01-10T18:30:01;50.83;;;23.70;;
3875;SDS011;1953;51.222;6.624;2024-01-10T18:34:46;48.37;;;22.50;;
3875;SDS011;1953;51.222;6.624;2024-01-10T18:39:30;55.23;;;23.80;;
3875;SDS011;1953;51.222;6.624;2024-01-10T18:44:13;60.20;;;25.83;;
3875;SDS011;1953;51.222;6.624;2024-01-10T18:48:56;51.37;;;23.80;;
3875;SDS011;1953;51.222;6.624;2024-01-10T18:53:39;56.20;;;24.67;;
3875;SDS011;1953;51.222;6.624;2024-01-10T18:58:23;57.87;;;25.07;;
3875;SDS011;1953;51.222;6.624;2024-01-10T19:03:06;54.20;;;24.30;;
3875;SDS011;1953;51.222;6.624;2024-01-10T19:07:49;53.37;;;24.30;;
3875;SDS011;1953;51.222;6.624;2024-01-10T19:12:31;49.83;;;23.03;;
3875;SDS011;1953;51.222;6.624;2024-01-10T19:17:15;59.70;;;25.30;;
3875;SDS011;1953;51.222;6.624;2024-01-10T19:21:58;49.33;;;23.67;;
3875;SDS011;1953;51.222;6.624;2024-01-10T19:26:45;55.27;;;23.03;;
3875;SDS011;1953;51.222;6.624;2024-01-10T19:31:27;52.07;;;23.63;;
3875;SDS011;1953;51.222;6.624;2024-01-10T19:36:11;56.80;;;25.67;;
3875;SDS011;1953;51.222;6.624;2024-01-10T19:40:54;60.93;;;28.30;;
3875;SDS011;1953;51.222;6.624;2024-01-10T19:45:36;57.23;;;27.80;;
3875;SDS011;1953;51.222;6.624;2024-01-10T19:50:19;56.23;;;25.73;;
3875;SDS011;1953;51.222;6.624;2024-01-10T19:55:04;55.00;;;22.87;;
3875;SDS011;1953;51.222;6.624;2024-01-10T19:59:48;56.03;;;26.30;;
3875;SDS011;1953;51.222;6.624;2024-01-10T20:04:30;69.30;;;29.80;;
3875;SDS011;1953;51.222;6.624;2024-01-10T20:09:13;92.97;;;38.07;;
3875;SDS011;1953;51.222;6.624;2024-01-10T20:13:57;100.73;;;42.13;;
3875;SDS011;1953;51.222;6.624;2024-01-10T20:18:40;76.53;;;32.70;;
3875;SDS011;1953;51.222;6.624;2024-01-10T20:23:23;69.87;;;29.17;;
3875;SDS011;1953;51.222;6.624;2024-01-10T20:28:05;64.67;;;26.63;;
3875;SDS011;1953;51.222;6.624;2024-01-10T20:32:50;65.57;;;29.90;;
3875;SDS011;1953;51.222;6.624;2024-01-10T20:37:33;67.50;;;27.20;;
3875;SDS011;1953;51.222;6.624;2024-01-10T20:42:15;60.70;;;27.97;;
3875;SDS011;1953;51.222;6.624;2024-01-10T20:46:58;65.53;;;27.93;;
3875;SDS011;1953;51.222;6.624;2024-01-10T20:51:42;72.77;;;29.60;;
3875;SDS011;1953;51.222;6.624;2024-01-10T20:56:24;64.20;;;29.50;;
3875;SDS011;1953;51.222;6.624;2024-01-10T21:01:07;74.70;;;31.53;;
3875;SDS011;1953;51.222;6.624;2024-01-10T21:05:49;69.70;;;30.40;;
3875;SDS011;1953;51.222;6.624;2024-01-10T21:10:33;71.13;;;30.37;;
3875;SDS011;1953;51.222;6.624;2024-01-10T21:15:16;69.30;;;30.20;;
3875;SDS011;1953;51.222;6.624;2024-01-10T21:19:59;71.33;;;31.17;;
3875;SDS011;1953;51.222;6.624;2024-01-10T21:24:41;64.57;;;29.20;;
3875;SDS011;1953;51.222;6.624;2024-01-10T21:29:25;68.93;;;31.23;;
3875;SDS011;1953;51.222;6.624;2024-01-10T21:34:08;65.00;;;28.77;;
3875;SDS011;1953;51.222;6.624;2024-01-10T21:38:50;67.53;;;29.50;;
3875;SDS011;1953;51.222;6.624;2024-01-10T21:43:33;56.30;;;27.67;;
3875;SDS011;1953;51.222;6.624;2024-01-10T21:48:17;55.07;;;26.30;;
3875;SDS011;1953;51.222;6.624;2024-01-10T21:53:01;74.77;;;29.07;;
3875;SDS011;1953;51.222;6.624;2024-01-10T21:57:44;62.23;;;28.10;;
3875;SDS011;1953;51.222;6.624;2024-01-10T22:02:27;71.13;;;28.30;;
3875;SDS011;1953;51.222;6.624;2024-01-10T22:07:10;123.37;;;37.90;;
3875;SDS011;1953;51.222;6.624;2024-01-10T22:11:53;119.60;;;41.53;;
3875;SDS011;1953;51.222;6.624;2024-01-10T22:16:35;65.63;;;29.33;;
3875;SDS011;1953;51.222;6.624;2024-01-10T22:21:19;72.93;;;26.43;;
3875;SDS011;1953;51.222;6.624;2024-01-10T22:26:03;64.60;;;24.97;;
3875;SDS011;1953;51.222;6.624;2024-01-10T22:30:46;66.57;;;29.03;;
3875;SDS011;1953;51.222;6.624;2024-01-10T22:35:29;64.60;;;25.97;;
3875;SDS011;1953;51.222;6.624;2024-01-10T22:40:12;60.23;;;26.33;;
3875;SDS011;1953;51.222;6.624;2024-01-10T22:44:56;60.93;;;25.70;;
3875;SDS011;1953;51.222;6.624;2024-01-10T22:49:38;60.50;;;25.40;;
3875;SDS011;1953;51.222;6.624;2024-01-10T22:54:21;72.20;;;28.60;;
3875;SDS011;1953;51.222;6.624;2024-01-10T22:59:03;67.73;;;29.37;;
3875;SDS011;1953;51.222;6.624;2024-01-10T23:03:47;63.70;;;25.77;;
3875;SDS011;1953;51.222;6.624;2024-01-10T23:08:30;59.10;;;25.43;;
3875;SDS011;1953;51.222;6.624;2024-01-10T23:13:13;61.27;;;24.20;;
3875;SDS011;1953;51.222;6.624;2024-01-10T23:17:55;63.83;;;25.93;;
3875;SDS011;1953;51.222;6.624;2024-01-10T23:22:39;55.03;;;25.57;;
3875;SDS011;1953;51.222;6.624;2024-01-10T23:27:21;62.70;;;26.73;;
3875;SDS011;1953;51.222;6.624;2024-01-10T23:32:04;57.93;;;26.37;;
3875;SDS011;1953;51.222;6.624;2024-01-10T23:36:48;62.30;;;26.60;;
3875;SDS011;1953;51.222;6.624;2024-01-10T23:41:32;57.80;;;24.90;;
3875;SDS011;1953;51.222;6.624;2024-01-10T23:46:14;61.53;;;26.13;;
3875;SDS011;1953;51.222;6.624;2024-01-10T23:50:57;59.00;;;24.27;;
3875;SDS011;1953;51.222;6.624;2024-01-10T23:55:39;59.27;;;27.60;;
